Time;durP1;ratioP1;P1;durP2;ratioP2;P2;SDS_P1;SDS_P2;PMS_P1;PMS_P2;Temp;Humidity;BMP_temperature;BMP_pressure;BME280_temperature;BME280_humidity;BME280_pressure;Samples;Min_cycle;Max_cycle;Signal;HPM_P1;HPM_P2
2023/07/23 00:00:56;;;;;;;;;;;;;;;23.04;27.27;97684.91;4938348;29;959;-78
2023/07/23 00:03:21;;;;;;;;;;;;;;;22.76;27.85;97681.84;4938637;29;860;-77
2023/07/23 00:05:47;;;;;;;;;;;;;;;22.87;27.52;97693.56;4938163;29;942;-78
2023/07/23 00:08:13;;;;;;;;;;;;;;;22.63;27.95;97698.09;4938329;29;985;-78
2023/07/23 00:10:39;;;;;;;;;;;;;;;23.01;27.41;97700.03;4926896;29;1087;-77
2023/07/23 00:13:04;;;;;;;;;;;;;;;22.90;27.65;97699.59;4953898;29;881;-77
2023/07/23 00:15:30;;;;;;;;;;;;;;;22.84;27.50;97703.00;4954337;29;1157;-77
2023/07/23 00:17:58;;;;;;;;;;;;;;;22.86;27.84;97711.88;4971787;28;1910;-77
2023/07/23 00:20:23;;;;;;;;;;;;;;;22.49;28.19;97729.81;4978490;28;956;-77
2023/07/23 00:22:49;;;;;;;;;;;;;;;22.68;27.95;97722.25;4961144;28;1091;-77
2023/07/23 00:25:14;;;;;;;;;;;;;;;22.73;28.11;97739.47;4961292;28;850;-77
2023/07/23 00:27:40;;;;;;;;;;;;;;;22.99;27.30;97739.41;4979031;28;887;-77
2023/07/23 00:30:05;;;;;;;;;;;;;;;22.59;28.17;97754.16;4945141;28;1279;-77
2023/07/23 00:32:32;;;;;;;;;;;;;;;22.95;27.68;97752.91;4897913;28;1085;-78
2023/07/23 00:34:57;;;;;;;;;;;;;;;22.87;27.92;97747.47;4961207;28;1202;-78
2023/07/23 00:37:23;;;;;;;;;;;;;;;22.72;27.72;97751.28;4928417;28;2001;-77
2023/07/23 00:39:48;;;;;;;;;;;;;;;23.12;27.37;97751.50;4961267;28;879;-77
2023/07/23 00:42:14;;;;;;;;;;;;;;;22.78;27.83;97763.63;4944400;28;1282;-77
2023/07/23 00:44:39;;;;;;;;;;;;;;;22.77;27.89;97765.66;4978291;28;877;-77
2023/07/23 00:47:05;;;;;;;;;;;;;;;22.60;27.90;97779.22;4944660;28;1265;-77
2023/07/23 00:49:30;;;;;;;;;;;;;;;23.07;27.47;97788.97;4961374;28;1106;-78
2023/07/23 00:51:56;;;;;;;;;;;;;;;22.81;27.73;97789.03;4961255;28;892;-77
2023/07/23 00:54:21;;;;;;;;;;;;;;;22.83;27.49;97802.75;4977952;28;810;-78
2023/07/23 00:56:47;;;;;;;;;;;;;;;22.98;27.77;97820.09;4961321;28;1064;-78
2023/07/23 00:59:13;;;;;;;;;;;;;;;22.67;28.00;97829.22;4960850;28;1968;-77
2023/07/23 01:01:38;;;;;;;;;;;;;;;22.93;27.78;97840.56;4960655;28;958;-78
2023/07/23 01:04:05;;;;;;;;;;;;;;;23.04;27.56;97864.47;4964136;28;1306;-77
2023/07/23 01:06:31;;;;;;;;;;;;;;;22.65;27.83;97853.63;4949416;28;1261;-77
2023/07/23 01:08:58;;;;;;;;;;;;;;;22.68;27.96;97844.19;4980718;28;1162;-77
2023/07/23 01:11:23;;;;;;;;;;;;;;;23.13;27.08;97861.72;4964796;28;1093;-78
2023/07/23 01:13:49;;;;;;;;;;;;;;;22.77;27.97;97856.44;4964611;28;1196;-77
2023/07/23 01:16:15;;;;;;;;;;;;;;;22.63;27.96;97854.06;4964770;28;1006;-76
2023/07/23 01:18:40;;;;;;;;;;;;;;;22.90;27.68;97841.47;4943967;29;1906;-77
2023/07/23 01:21:06;;;;;;;;;;;;;;;22.67;28.28;97820.72;4909216;29;1248;-77
2023/07/23 01:23:32;;;;;;;;;;;;;;;22.95;27.69;97786.97;4925327;29;1301;-77
2023/07/23 01:25:57;;;;;;;;;;;;;;;22.82;27.83;97750.13;4941079;29;951;-78
2023/07/23 01:28:23;;;;;;;;;;;;;;;22.65;27.71;97729.66;4940963;29;1039;-78
2023/07/23 01:30:48;;;;;;;;;;;;;;;23.03;27.19;97708.84;4941231;29;1067;-78
2023/07/23 01:33:14;;;;;;;;;;;;;;;22.91;27.17;97670.00;4940877;29;971;-77
2023/07/23 01:35:40;;;;;;;;;;;;;;;22.77;27.38;97646.53;4921928;29;1177;-77
2023/07/23 01:38:05;;;;;;;;;;;;;;;22.85;27.27;97655.59;4906067;29;1907;-77
2023/07/23 01:40:30;;;;;;;;;;;;;;;22.91;27.01;97650.16;4887059;29;1054;-78
2023/07/23 01:42:56;;;;;;;;;;;;;;;22.86;26.87;97657.97;4887342;29;761;-78
2023/07/23 01:45:22;;;;;;;;;;;;;;;22.90;27.04;97665.56;4887736;29;845;-78
2023/07/23 01:47:47;;;;;;;;;;;;;;;23.00;26.87;97675.72;4887408;29;937;-78
2023/07/23 01:50:13;;;;;;;;;;;;;;;23.01;26.82;97688.69;4856404;29;1583;-78
2023/07/23 01:52:38;;;;;;;;;;;;;;;22.85;27.01;97681.91;4903018;29;1086;-77
2023/07/23 01:55:04;;;;;;;;;;;;;;;22.77;27.09;97691.94;4902403;29;935;-77
2023/07/23 01:57:30;;;;;;;;;;;;;;;22.88;27.14;97711.41;4902733;29;1914;-77
2023/07/23 01:59:55;;;;;;;;;;;;;;;22.94;26.78;97717.28;4902580;29;1152;-77
2023/07/23 02:02:21;;;;;;;;;;;;;;;22.54;27.33;97712.22;4886988;29;1236;-78
2023/07/23 02:04:47;;;;;;;;;;;;;;;22.76;27.03;97707.38;4902557;29;887;-78
2023/07/23 02:07:12;;;;;;;;;;;;;;;22.77;26.97;97717.44;4916372;29;1065;-78
2023/07/23 02:09:38;;;;;;;;;;;;;;;22.88;26.57;97717.88;4905727;29;928;-77
2023/07/23 02:12:04;;;;;;;;;;;;;;;22.81;26.82;97726.63;4935769;29;1069;-76
2023/07/23 02:14:30;;;;;;;;;;;;;;;22.67;27.11;97727.13;4940299;29;978;-77
2023/07/23 02:16:55;;;;;;;;;;;;;;;22.69;27.21;97718.97;4940328;29;1902;-78
2023/07/23 02:19:22;;;;;;;;;;;;;;;23.07;26.56;97726.56;4940357;29;934;-77
2023/07/23 02:21:47;;;;;;;;;;;;;;;22.90;26.78;97728.78;4940236;29;1210;-77
2023/07/23 02:24:13;;;;;;;;;;;;;;;22.91;26.73;97727.53;4940565;29;889;-77
2023/07/23 02:26:38;;;;;;;;;;;;;;;22.64;27.22;97728.06;4924586;29;907;-77
2023/07/23 02:29:04;;;;;;;;;;;;;;;22.90;26.72;97740.13;4939872;29;1078;-77
2023/07/23 02:31:30;;;;;;;;;;;;;;;22.97;26.41;97750.44;4940407;29;1226;-77
2023/07/23 02:33:55;;;;;;;;;;;;;;;22.56;27.29;97763.59;4958810;28;910;-77
2023/07/23 02:36:21;;;;;;;;;;;;;;;22.85;26.65;97761.34;4963568;28;1100;-77
2023/07/23 02:38:46;;;;;;;;;;;;;;;22.77;26.70;97777.03;4979600;28;1979;-77
2023/07/23 02:41:12;;;;;;;;;;;;;;;22.84;26.76;97776.75;4947601;28;1082;-77
2023/07/23 02:43:38;;;;;;;;;;;;;;;22.90;26.48;97790.38;4963506;28;843;-77
2023/07/23 02:46:03;;;;;;;;;;;;;;;23.00;26.53;97783.53;4963511;28;969;-78
2023/07/23 02:48:29;;;;;;;;;;;;;;;22.80;26.77;97804.47;4939435;29;1152;-77
2023/07/23 02:50:54;;;;;;;;;;;;;;;22.56;27.17;97806.13;4923841;29;1206;-78
2023/07/23 02:53:20;;;;;;;;;;;;;;;23.03;26.47;97799.66;4923854;29;1080;-77
2023/07/23 02:55:46;;;;;;;;;;;;;;;22.81;26.67;97805.28;4923906;29;1415;-77
2023/07/23 02:58:11;;;;;;;;;;;;;;;22.32;27.37;97803.63;4939619;29;1976;-77
2023/07/23 03:00:40;;;;;;;;;;;;;;;22.50;27.14;97802.28;4924195;29;1010;-77
2023/07/23 03:03:07;;;;;;;;;;;;;;;22.88;26.66;97794.47;4907830;29;1190;-78
2023/07/23 03:05:33;;;;;;;;;;;;;;;22.68;26.85;97802.44;4923376;29;1331;-77
2023/07/23 03:07:59;;;;;;;;;;;;;;;22.79;26.95;97819.88;4923422;29;1195;-77
2023/07/23 03:10:24;;;;;;;;;;;;;;;22.39;27.14;97830.97;4923583;29;973;-78
2023/07/23 03:12:50;;;;;;;;;;;;;;;22.76;26.56;97843.50;4939266;29;964;-78
2023/07/23 03:15:15;;;;;;;;;;;;;;;22.55;27.19;97866.91;4923785;29;946;-77
2023/07/23 03:17:41;;;;;;;;;;;;;;;22.71;26.93;97875.28;4938887;29;1971;-77
2023/07/23 03:20:10;;;;;;;;;;;;;;;22.79;26.78;97870.16;4969102;28;962;-77
2023/07/23 03:22:35;;;;;;;;;;;;;;;22.56;26.92;97865.66;4966844;28;1337;-77
2023/07/23 03:25:03;;;;;;;;;;;;;;;22.62;26.93;97856.13;4966602;28;1290;-77
2023/07/23 03:27:29;;;;;;;;;;;;;;;22.90;26.46;97852.81;4955305;28;1331;-78
2023/07/23 03:29:54;;;;;;;;;;;;;;;23.04;26.48;97830.41;4986296;28;1258;-78
2023/07/23 03:32:20;;;;;;;;;;;;;;;22.77;26.84;97816.72;4945584;28;1344;-78
2023/07/23 03:34:45;;;;;;;;;;;;;;;22.56;27.51;97789.88;4979121;28;1192;-78
2023/07/23 03:37:12;;;;;;;;;;;;;;;22.52;27.38;97754.41;4981860;28;1918;-78
2023/07/23 03:39:37;;;;;;;;;;;;;;;22.73;27.07;97762.16;4997511;28;844;-78
2023/07/23 03:42:03;;;;;;;;;;;;;;;22.80;27.16;97769.66;4965556;28;1123;-78
2023/07/23 03:44:29;;;;;;;;;;;;;;;22.73;27.07;97787.69;4961091;28;1202;-78
2023/07/23 03:47:13;;;;;;;;;;;;;;;22.92;26.86;97805.72;4977407;28;910;-78
2023/07/23 03:49:38;;;;;;;;;;;;;;;22.71;27.38;97829.91;4944990;28;1200;-78
2023/07/23 03:52:05;;;;;;;;;;;;;;;23.04;27.09;97838.13;4961106;28;1168;-78
2023/07/23 03:54:30;;;;;;;;;;;;;;;22.61;27.75;97831.84;4960703;28;982;-79
2023/07/23 03:56:56;;;;;;;;;;;;;;;22.73;27.77;97832.28;4961087;28;1121;-79
2023/07/23 03:59:21;;;;;;;;;;;;;;;22.66;27.99;97827.66;4960597;28;2025;-78
2023/07/23 04:01:47;;;;;;;;;;;;;;;22.66;28.05;97821.19;4928907;28;1259;-78
2023/07/23 04:04:12;;;;;;;;;;;;;;;22.76;28.04;97818.00;4928804;28;1192;-78
2023/07/23 04:06:38;;;;;;;;;;;;;;;22.61;28.55;97825.38;4903368;29;1007;-78
2023/07/23 04:09:04;;;;;;;;;;;;;;;22.40;28.98;97814.75;4919642;29;913;-79
2023/07/23 04:11:29;;;;;;;;;;;;;;;22.74;28.52;97800.66;4919180;29;1018;-78
2023/07/23 04:13:54;;;;;;;;;;;;;;;22.64;28.58;97784.78;4919246;29;987;-78
2023/07/23 04:16:20;;;;;;;;;;;;;;;22.69;28.71;97777.72;4935932;29;954;-78
2023/07/23 04:18:46;;;;;;;;;;;;;;;22.76;28.41;97786.78;4938280;29;1918;-78
2023/07/23 04:21:12;;;;;;;;;;;;;;;22.66;29.08;97779.44;4938492;29;1350;-78
2023/07/23 04:23:38;;;;;;;;;;;;;;;22.60;28.83;97782.06;4922050;29;1130;-78
2023/07/23 04:26:03;;;;;;;;;;;;;;;22.65;28.82;97780.69;4922788;29;819;-78
2023/07/23 04:28:29;;;;;;;;;;;;;;;22.69;28.77;97787.03;4921996;29;942;-78
2023/07/23 04:30:55;;;;;;;;;;;;;;;22.77;28.69;97784.75;4922082;29;909;-78
2023/07/23 04:33:20;;;;;;;;;;;;;;;22.59;28.98;97776.84;4906468;29;1273;-78
2023/07/23 04:35:45;;;;;;;;;;;;;;;22.73;28.98;97770.66;4906829;29;967;-78
2023/07/23 04:38:11;;;;;;;;;;;;;;;22.84;28.34;97775.97;4949084;28;1956;-78
2023/07/23 04:40:36;;;;;;;;;;;;;;;22.81;28.94;97774.06;4960389;28;1081;-78
2023/07/23 04:43:03;;;;;;;;;;;;;;;22.66;29.27;97775.81;4921858;29;1276;-78
2023/07/23 04:45:29;;;;;;;;;;;;;;;22.67;29.14;97783.84;4937746;29;1230;-78
2023/07/23 04:47:55;;;;;;;;;;;;;;;22.65;29.48;97792.03;4899639;29;911;-78
2023/07/23 04:50:20;;;;;;;;;;;;;;;22.71;28.93;97795.88;4899878;29;1138;-78
2023/07/23 04:52:46;;;;;;;;;;;;;;;22.75;28.89;97793.72;4862331;29;938;-79
2023/07/23 04:55:11;;;;;;;;;;;;;;;22.99;28.80;97787.63;4847081;29;1220;-78
2023/07/23 04:57:38;;;;;;;;;;;;;;;22.85;28.77;97784.03;4831967;29;1919;-78
2023/07/23 05:00:06;;;;;;;;;;;;;;;22.91;28.89;97786.31;4862416;29;1017;-78
2023/07/23 05:02:32;;;;;;;;;;;;;;;23.07;28.31;97771.97;4807514;29;1104;-78
2023/07/23 05:04:58;;;;;;;;;;;;;;;22.92;28.63;97782.22;4807594;29;927;-77
2023/07/23 05:07:23;;;;;;;;;;;;;;;22.97;28.57;97781.66;4792501;29;966;-78
2023/07/23 05:09:49;;;;;;;;;;;;;;;22.76;28.62;97783.94;4792558;29;911;-78
2023/07/23 05:12:14;;;;;;;;;;;;;;;22.87;28.57;97787.19;4792663;29;982;-78
2023/07/23 05:14:40;;;;;;;;;;;;;;;22.75;28.79;97790.88;4792594;29;893;-78
2023/07/23 05:17:05;;;;;;;;;;;;;;;22.86;28.34;97785.63;4777534;29;1915;-78
2023/07/23 05:19:31;;;;;;;;;;;;;;;22.70;28.54;97794.28;4851414;29;997;-78
2023/07/23 05:21:56;;;;;;;;;;;;;;;23.08;28.21;97796.25;4865510;29;1086;-78
2023/07/23 05:24:22;;;;;;;;;;;;;;;22.94;28.43;97791.84;4880545;29;956;-78
2023/07/23 05:26:47;;;;;;;;;;;;;;;23.01;28.21;97796.50;4880952;29;1078;-78
2023/07/23 05:29:13;;;;;;;;;;;;;;;23.06;27.92;97787.41;4886178;29;883;-78
2023/07/23 05:31:38;;;;;;;;;;;;;;;23.08;28.12;97785.69;4921643;29;1041;-78
2023/07/23 05:34:04;;;;;;;;;;;;;;;22.83;28.48;97795.03;4902382;29;1198;-79
2023/07/23 05:36:29;;;;;;;;;;;;;;;22.87;28.26;97792.88;4887342;29;1245;-78
2023/07/23 05:38:55;;;;;;;;;;;;;;;22.75;28.85;97785.22;4905962;29;1974;-78
2023/07/23 05:41:20;;;;;;;;;;;;;;;22.79;29.08;97788.69;4956321;29;854;-78
2023/07/23 05:43:46;;;;;;;;;;;;;;;22.91;28.89;97780.66;4940769;29;947;-78
2023/07/23 05:46:11;;;;;;;;;;;;;;;22.90;29.23;97773.38;4940598;29;1141;-78
2023/07/23 05:48:37;;;;;;;;;;;;;;;23.13;28.71;97781.47;4903106;29;1198;-78
2023/07/23 05:51:02;;;;;;;;;;;;;;;22.99;29.21;97767.78;4875259;29;1166;-78
2023/07/23 05:53:28;;;;;;;;;;;;;;;22.90;29.51;97779.03;4905794;29;1194;-78
2023/07/23 05:55:54;;;;;;;;;;;;;;;22.74;29.95;97766.59;4921835;29;1150;-78
2023/07/23 05:58:19;;;;;;;;;;;;;;;23.03;29.28;97765.59;4921537;29;1907;-78
2023/07/23 06:00:44;;;;;;;;;;;;;;;22.90;29.94;97770.53;4890287;29;1071;-78
2023/07/23 06:03:10;;;;;;;;;;;;;;;22.94;29.46;97765.53;4874528;29;1241;-78
2023/07/23 06:05:36;;;;;;;;;;;;;;;23.02;29.65;97753.47;4934080;29;1033;-78
2023/07/23 06:08:01;;;;;;;;;;;;;;;23.04;29.78;97755.84;4943733;29;907;-78
2023/07/23 06:10:26;;;;;;;;;;;;;;;23.03;30.08;97759.94;4960049;29;1116;-79
2023/07/23 06:12:52;;;;;;;;;;;;;;;23.12;30.05;97768.53;4959221;29;918;-79
2023/07/23 06:15:17;;;;;;;;;;;;;;;23.01;30.18;97763.25;4959246;29;980;-78
2023/07/23 06:17:43;;;;;;;;;;;;;;;23.09;30.38;97769.44;4940278;29;1985;-78
2023/07/23 06:20:09;;;;;;;;;;;;;;;23.04;30.13;97770.03;4913636;29;1057;-79
2023/07/23 06:22:34;;;;;;;;;;;;;;;23.16;30.17;97774.88;4924231;29;1807;-78
2023/07/23 06:25:00;;;;;;;;;;;;;;;23.01;30.34;97774.59;4939883;29;1133;-78
2023/07/23 06:27:25;;;;;;;;;;;;;;;22.93;30.45;97783.81;4940257;29;1109;-78
2023/07/23 06:29:51;;;;;;;;;;;;;;;23.23;29.75;97777.44;4939824;29;954;-78
2023/07/23 06:32:16;;;;;;;;;;;;;;;22.90;30.13;97784.72;4923953;29;1092;-79
2023/07/23 06:34:42;;;;;;;;;;;;;;;23.09;30.17;97780.78;4923834;29;922;-78
2023/07/23 06:37:07;;;;;;;;;;;;;;;22.96;30.44;97782.91;4940062;29;1911;-78
2023/07/23 06:39:32;;;;;;;;;;;;;;;22.83;30.53;97785.75;4923904;29;872;-78
2023/07/23 06:41:58;;;;;;;;;;;;;;;23.06;30.06;97787.41;4924215;29;1136;-78
2023/07/23 06:44:24;;;;;;;;;;;;;;;22.97;30.20;97796.63;4924055;29;1142;-78
2023/07/23 06:46:49;;;;;;;;;;;;;;;23.32;29.80;97794.53;4892535;29;1118;-78
2023/07/23 06:49:15;;;;;;;;;;;;;;;23.14;30.10;97795.19;4908121;29;1122;-78
2023/07/23 06:51:40;;;;;;;;;;;;;;;22.99;30.21;97801.81;4908243;29;1213;-78
2023/07/23 06:54:05;;;;;;;;;;;;;;;22.62;30.88;97798.59;4896840;28;1473;-78
2023/07/23 06:56:31;;;;;;;;;;;;;;;23.16;29.68;97797.56;4961920;28;1072;-78
2023/07/23 06:58:57;;;;;;;;;;;;;;;23.01;30.21;97808.66;4961699;28;1977;-79
2023/07/23 07:01:23;;;;;;;;;;;;;;;23.22;29.97;97807.09;4977584;28;938;-78
2023/07/23 07:03:48;;;;;;;;;;;;;;;23.00;30.33;97807.06;4961616;28;1298;-79
2023/07/23 07:06:15;;;;;;;;;;;;;;;22.94;30.36;97813.75;4961547;28;954;-78
2023/07/23 07:08:41;;;;;;;;;;;;;;;23.16;30.22;97820.28;4961486;28;1101;-78
2023/07/23 07:11:09;;;;;;;;;;;;;;;23.17;30.17;97833.22;4978039;28;783;-78
2023/07/23 07:13:35;;;;;;;;;;;;;;;23.22;30.20;97829.78;4961097;28;984;-78
2023/07/23 07:16:01;;;;;;;;;;;;;;;23.25;29.76;97820.34;4961805;28;1080;-78
2023/07/23 07:18:26;;;;;;;;;;;;;;;23.19;29.65;97825.03;4945503;28;1973;-79
2023/07/23 07:20:54;;;;;;;;;;;;;;;23.12;29.81;97825.28;4977639;28;867;-78
2023/07/23 07:23:20;;;;;;;;;;;;;;;23.20;29.58;97832.28;4977208;28;1221;-78
2023/07/23 07:25:46;;;;;;;;;;;;;;;22.97;30.30;97832.72;4974434;28;1267;-78
2023/07/23 07:28:11;;;;;;;;;;;;;;;22.98;30.36;97831.47;4973033;28;838;-78
2023/07/23 07:30:40;;;;;;;;;;;;;;;22.78;30.77;97828.88;4961307;28;973;-78
2023/07/23 07:33:05;;;;;;;;;;;;;;;22.96;30.38;97839.66;4961343;28;1093;-78
2023/07/23 07:35:31;;;;;;;;;;;;;;;23.01;30.21;97841.91;4976998;28;901;-78
2023/07/23 07:37:56;;;;;;;;;;;;;;;22.91;30.42;97838.19;4961202;28;1922;-78
2023/07/23 07:40:22;;;;;;;;;;;;;;;23.14;30.23;97839.81;4977210;28;957;-78
2023/07/23 07:42:47;;;;;;;;;;;;;;;23.20;30.22;97837.97;4977399;28;879;-78
2023/07/23 07:45:13;;;;;;;;;;;;;;;23.10;30.25;97839.13;4977101;28;962;-78
2023/07/23 07:47:38;;;;;;;;;;;;;;;23.32;29.74;97851.31;4961032;28;973;-78
2023/07/23 07:50:06;;;;;;;;;;;;;;;22.95;30.44;97843.72;4941334;29;1085;-78
2023/07/23 07:52:32;;;;;;;;;;;;;;;23.21;30.22;97845.25;4958310;29;974;-78
2023/07/23 07:54:59;;;;;;;;;;;;;;;23.25;30.30;97850.78;4957915;29;868;-78
2023/07/23 07:57:26;;;;;;;;;;;;;;;23.09;30.55;97846.06;4957464;29;1997;-78
2023/07/23 07:59:51;;;;;;;;;;;;;;;23.16;30.44;97853.53;4925643;29;1173;-79
2023/07/23 08:02:17;;;;;;;;;;;;;;;23.45;29.96;97844.78;4941489;29;843;-78
2023/07/23 08:04:43;;;;;;;;;;;;;;;23.12;30.32;97853.66;4957371;29;929;-78
2023/07/23 08:07:08;;;;;;;;;;;;;;;23.26;30.11;97853.19;4941932;29;1210;-78
2023/07/23 08:09:34;;;;;;;;;;;;;;;23.26;30.26;97850.34;4941313;29;896;-78
2023/07/23 08:11:59;;;;;;;;;;;;;;;23.01;30.59;97856.88;4941480;29;851;-77
2023/07/23 08:14:25;;;;;;;;;;;;;;;22.96;30.63;97851.78;4925362;29;931;-78
2023/07/23 08:16:54;;;;;;;;;;;;;;;23.22;30.27;97851.72;4941248;29;1034;-78
2023/07/23 08:19:19;;;;;;;;;;;;;;;23.31;30.16;97855.44;4925992;29;1911;-78
2023/07/23 08:21:45;;;;;;;;;;;;;;;23.51;29.79;97863.59;4972597;28;1039;-78
2023/07/23 08:24:12;;;;;;;;;;;;;;;23.54;29.71;97850.53;4998111;28;735;-78
2023/07/23 08:26:38;;;;;;;;;;;;;;;23.22;30.13;97866.69;4981004;28;835;-78
2023/07/23 08:29:04;;;;;;;;;;;;;;;23.25;29.84;97862.13;4980616;28;887;-78
2023/07/23 08:31:30;;;;;;;;;;;;;;;23.24;30.20;97855.66;4941031;29;881;-78
2023/07/23 08:33:55;;;;;;;;;;;;;;;23.22;29.99;97855.34;4941098;29;1155;-78
2023/07/23 08:36:21;;;;;;;;;;;;;;;22.96;30.34;97851.00;4941215;29;894;-78
2023/07/23 08:38:47;;;;;;;;;;;;;;;23.24;29.99;97855.66;4940821;29;1914;-78
2023/07/23 08:41:33;;;;;;;;;;;;;;;23.31;29.95;97855.44;4940939;29;946;-78
2023/07/23 08:44:10;;;;;;;;;;;;;;;23.59;29.60;97859.25;4918560;29;981;-78
2023/07/23 08:46:45;;;;;;;;;;;;;;;23.45;29.96;97853.31;4902834;29;1079;-78
2023/07/23 08:49:11;;;;;;;;;;;;;;;23.30;30.04;97859.50;4880801;29;1364;-78
2023/07/23 08:51:39;;;;;;;;;;;;;;;23.36;30.05;97866.19;4880891;29;896;-78
2023/07/23 08:54:06;;;;;;;;;;;;;;;23.31;30.22;97866.78;4881221;29;1027;-77
2023/07/23 08:56:32;;;;;;;;;;;;;;;23.16;30.53;97860.03;4880885;29;865;-78
2023/07/23 08:58:58;;;;;;;;;;;;;;;23.36;30.16;97871.88;4880916;29;1907;-78
2023/07/23 09:01:24;;;;;;;;;;;;;;;23.14;30.55;97873.88;4882146;29;864;-77
2023/07/23 09:03:49;;;;;;;;;;;;;;;23.21;30.04;97867.94;4884046;29;919;-78
2023/07/23 09:06:15;;;;;;;;;;;;;;;23.15;30.43;97872.59;4884227;29;995;-78
2023/07/23 09:08:40;;;;;;;;;;;;;;;23.17;30.62;97878.63;4899637;29;1005;-78
2023/07/23 09:11:09;;;;;;;;;;;;;;;23.24;30.36;97889.72;4865192;29;1225;-78
2023/07/23 09:13:35;;;;;;;;;;;;;;;23.34;30.21;97894.22;4865587;29;1115;-78
2023/07/23 09:16:01;;;;;;;;;;;;;;;23.11;30.72;97897.50;4881075;29;956;-79
2023/07/23 09:18:27;;;;;;;;;;;;;;;23.52;30.22;97898.47;4865313;29;1892;-78
2023/07/23 09:20:52;;;;;;;;;;;;;;;23.33;30.49;97892.66;4888887;29;1114;-78
2023/07/23 09:23:18;;;;;;;;;;;;;;;23.07;31.10;97885.47;4884579;29;1308;-78
2023/07/23 09:25:44;;;;;;;;;;;;;;;23.48;30.53;97892.94;4903536;29;1027;-78
2023/07/23 09:28:29;;;;;;;;;;;;;;;23.46;30.36;97900.31;4887473;29;888;-78
2023/07/23 09:30:55;;;;;;;;;;;;;;;23.49;30.30;97899.41;4903335;29;933;-78
2023/07/23 09:33:43;;;;;;;;;;;;;;;23.21;30.94;97907.69;4887268;29;964;-78
2023/07/23 09:36:08;;;;;;;;;;;;;;;23.28;30.92;97913.13;4902729;29;1158;-78
2023/07/23 09:38:34;;;;;;;;;;;;;;;22.76;31.59;97922.16;4887042;29;1910;-77
2023/07/23 09:40:59;;;;;;;;;;;;;;;23.31;30.70;97915.03;4904986;29;914;-78
2023/07/23 09:43:25;;;;;;;;;;;;;;;23.27;30.77;97917.22;4892802;29;1130;-78
2023/07/23 09:45:51;;;;;;;;;;;;;;;22.95;31.37;97918.31;4925822;28;974;-78
2023/07/23 09:48:17;;;;;;;;;;;;;;;23.32;31.07;97913.00;4983111;28;855;-78
2023/07/23 09:50:43;;;;;;;;;;;;;;;23.29;31.44;97920.38;4983144;28;911;-78
2023/07/23 09:53:09;;;;;;;;;;;;;;;23.10;31.70;97921.44;4983175;28;857;-78
2023/07/23 09:55:35;;;;;;;;;;;;;;;23.28;31.36;97924.47;4983868;28;940;-78
2023/07/23 09:58:00;;;;;;;;;;;;;;;23.30;31.57;97924.78;4982799;28;1898;-78
2023/07/23 10:00:26;;;;;;;;;;;;;;;23.28;31.42;97920.84;5000592;28;1024;-78
2023/07/23 10:02:51;;;;;;;;;;;;;;;23.37;31.33;97920.94;4982982;28;965;-78
2023/07/23 10:05:17;;;;;;;;;;;;;;;23.46;31.02;97925.88;4924592;29;1125;-78
2023/07/23 10:07:44;;;;;;;;;;;;;;;23.51;30.99;97919.63;4924242;29;1001;-78
2023/07/23 10:10:09;;;;;;;;;;;;;;;23.42;31.08;97911.03;4908217;29;958;-77
2023/07/23 10:12:35;;;;;;;;;;;;;;;23.61;30.84;97915.59;4924006;29;822;-78
2023/07/23 10:15:01;;;;;;;;;;;;;;;23.54;30.68;97924.38;4908347;29;1099;-78
2023/07/23 10:17:26;;;;;;;;;;;;;;;23.34;31.26;97922.63;4940181;29;1966;-77
2023/07/23 10:19:52;;;;;;;;;;;;;;;23.29;30.87;97917.53;4943309;29;1063;-78
2023/07/23 10:22:18;;;;;;;;;;;;;;;23.44;30.72;97919.88;4942798;29;1227;-78
2023/07/23 10:24:43;;;;;;;;;;;;;;;23.52;30.54;97930.53;4943021;29;1061;-78
2023/07/23 10:27:09;;;;;;;;;;;;;;;23.59;30.30;97932.31;4943178;29;1077;-78
2023/07/23 10:29:35;;;;;;;;;;;;;;;23.36;30.78;97925.81;4939633;29;959;-78
2023/07/23 10:32:19;;;;;;;;;;;;;;;23.36;30.74;97914.47;4923680;29;1224;-78
2023/07/23 10:34:46;;;;;;;;;;;;;;;23.27;30.62;97922.88;4939698;29;852;-78
2023/07/23 10:37:14;;;;;;;;;;;;;;;23.31;30.57;97917.88;4973865;28;1062;-78
2023/07/23 10:39:40;;;;;;;;;;;;;;;23.15;30.76;97923.69;4939183;29;893;-78
2023/07/23 10:42:06;;;;;;;;;;;;;;;23.02;30.79;97928.63;4939591;29;932;-78
2023/07/23 10:44:32;;;;;;;;;;;;;;;23.19;30.75;97927.22;4923574;29;1200;-78
2023/07/23 10:46:58;;;;;;;;;;;;;;;23.15;30.41;97926.53;4901907;29;900;-78
2023/07/23 10:49:26;;;;;;;;;;;;;;;23.26;30.11;97932.66;4885854;29;940;-78
2023/07/23 10:51:52;;;;;;;;;;;;;;;23.42;30.05;97934.53;4901793;29;962;-78
2023/07/23 10:54:18;;;;;;;;;;;;;;;23.54;29.68;97938.59;4885644;29;956;-78
2023/07/23 10:56:43;;;;;;;;;;;;;;;23.34;30.26;97936.81;4885635;29;869;-78
2023/07/23 10:59:10;;;;;;;;;;;;;;;23.19;30.38;97944.25;4885519;29;1911;-78
2023/07/23 11:01:36;;;;;;;;;;;;;;;23.23;30.37;97944.91;4899535;29;904;-78
2023/07/23 11:04:21;;;;;;;;;;;;;;;23.52;29.64;97949.59;4885697;29;832;-78
2023/07/23 11:07:00;;;;;;;;;;;;;;;23.28;30.12;97941.50;4900860;29;937;-78
2023/07/23 11:09:29;;;;;;;;;;;;;;;23.19;30.36;97941.41;4901219;29;862;-78
2023/07/23 11:11:55;;;;;;;;;;;;;;;23.20;30.12;97934.47;4867226;29;903;-78
2023/07/23 11:14:24;;;;;;;;;;;;;;;23.32;29.78;97942.19;4866868;29;912;-78
2023/07/23 11:16:50;;;;;;;;;;;;;;;23.17;29.84;97941.06;4869689;29;1064;-79
2023/07/23 11:19:16;;;;;;;;;;;;;;;23.33;29.61;97932.41;4957610;29;1977;-78
2023/07/23 11:22:00;;;;;;;;;;;;;;;23.32;29.96;97930.81;4942183;29;1130;-78
2023/07/23 11:24:26;;;;;;;;;;;;;;;23.31;29.76;97940.59;4957789;29;1275;-78
2023/07/23 11:26:52;;;;;;;;;;;;;;;23.45;29.57;97938.50;4957961;29;927;-78
2023/07/23 11:29:18;;;;;;;;;;;;;;;23.31;29.80;97937.75;4941579;29;912;-78
2023/07/23 11:31:44;;;;;;;;;;;;;;;23.45;29.56;97944.19;4948341;28;953;-77
2023/07/23 11:34:10;;;;;;;;;;;;;;;23.39;29.48;97936.25;4998727;28;824;-78
2023/07/23 11:36:35;;;;;;;;;;;;;;;23.08;29.98;97938.94;4957977;29;1177;-78
2023/07/23 11:39:01;;;;;;;;;;;;;;;23.15;29.87;97949.25;4941549;29;1981;-78
2023/07/23 11:41:30;;;;;;;;;;;;;;;23.12;29.99;97935.97;4941777;29;1116;-78
2023/07/23 11:43:56;;;;;;;;;;;;;;;23.29;29.54;97937.41;4941239;29;1072;-78
2023/07/23 11:46:22;;;;;;;;;;;;;;;22.91;30.38;97939.53;4957337;28;939;-78
2023/07/23 11:48:50;;;;;;;;;;;;;;;23.12;29.92;97933.13;4957348;29;982;-78
2023/07/23 11:51:16;;;;;;;;;;;;;;;23.20;29.58;97934.47;4957812;29;957;-78
2023/07/23 11:53:41;;;;;;;;;;;;;;;23.35;29.39;97941.25;4957433;29;900;-77
2023/07/23 11:56:07;;;;;;;;;;;;;;;23.17;29.57;97952.44;4942094;29;932;-78
2023/07/23 11:58:34;;;;;;;;;;;;;;;23.33;29.41;97938.09;4941246;29;1923;-78
2023/07/23 12:00:59;;;;;;;;;;;;;;;23.18;29.38;97942.66;4942232;29;863;-78
2023/07/23 12:03:25;;;;;;;;;;;;;;;23.54;28.83;97947.09;4925136;29;985;-78
2023/07/23 12:05:50;;;;;;;;;;;;;;;23.46;28.87;97951.44;4925550;29;1548;-78
2023/07/23 12:08:16;;;;;;;;;;;;;;;23.31;29.22;97940.59;4956749;28;936;-78
2023/07/23 12:10:41;;;;;;;;;;;;;;;23.14;29.32;97936.31;4981239;28;858;-78
2023/07/23 12:13:08;;;;;;;;;;;;;;;23.33;29.16;97942.97;4998002;28;1019;-78
2023/07/23 12:15:33;;;;;;;;;;;;;;;23.34;29.11;97951.03;4981102;28;779;-78
2023/07/23 12:17:59;;;;;;;;;;;;;;;23.25;29.04;97936.72;4997848;28;1906;-78
2023/07/23 12:20:25;;;;;;;;;;;;;;;23.37;28.88;97932.28;4963544;28;1001;-78
2023/07/23 12:22:57;;;;;;;;;;;;;;;23.24;29.27;97940.81;4980686;28;1225;-78
2023/07/23 12:25:23;;;;;;;;;;;;;;;23.30;29.03;97938.19;4980341;28;952;-78
2023/07/23 12:27:48;;;;;;;;;;;;;;;23.23;29.12;97944.13;4997410;28;1133;-78
2023/07/23 12:30:14;;;;;;;;;;;;;;;23.43;28.71;97935.34;4980508;28;881;-78
2023/07/23 12:32:39;;;;;;;;;;;;;;;23.20;29.21;97942.19;4980603;28;921;-78
2023/07/23 12:35:05;;;;;;;;;;;;;;;23.12;29.49;97950.16;4980815;28;1335;-78
2023/07/23 12:37:31;;;;;;;;;;;;;;;23.27;29.30;97956.94;4980613;28;1914;-77
2023/07/23 12:39:57;;;;;;;;;;;;;;;23.51;28.88;97959.38;4989299;28;1539;-78
2023/07/23 12:42:22;;;;;;;;;;;;;;;23.16;29.17;97967.88;4981120;28;918;-78
2023/07/23 12:44:48;;;;;;;;;;;;;;;22.87;29.63;97968.78;4979965;28;1452;-79
2023/07/23 12:47:14;;;;;;;;;;;;;;;22.86;29.47;97970.03;4966007;28;1558;-78
2023/07/23 12:49:39;;;;;;;;;;;;;;;23.02;29.31;97968.34;4960716;28;1279;-78
2023/07/23 12:52:05;;;;;;;;;;;;;;;23.11;29.12;97959.94;4978173;28;878;-78
2023/07/23 12:54:30;;;;;;;;;;;;;;;23.34;28.77;97961.59;4960756;28;845;-78
2023/07/23 12:56:56;;;;;;;;;;;;;;;23.55;28.11;97965.72;4961259;28;986;-78